Time;durP1;ratioP1;P1;durP2;ratioP2;P2;SDS_P1;SDS_P2;PMS_P1;PMS_P2;Temp;Humidity;BMP_temperature;BMP_pressure;BME280_temperature;BME280_humidity;BME280_pressure;Samples;Min_cycle;Max_cycle;Signal;HPM_P1;HPM_P2
2022/10/31 00:00:21;;;;;;;72.95;52.53;;;18.80;80.70;;;;;;4943176;28;92505;-50
2022/10/31 00:02:47;;;;;;;72.75;52.35;;;18.80;80.80;;;;;;4948577;28;92037;-51
2022/10/31 00:05:13;;;;;;;73.07;52.08;;;18.80;80.70;;;;;;4942837;28;91356;-52
2022/10/31 00:07:38;;;;;;;73.72;52.97;;;18.80;80.80;;;;;;4946679;28;90400;-53
2022/10/31 00:10:04;;;;;;;73.88;51.70;;;18.80;80.70;;;;;;4956302;28;90796;-48
2022/10/31 00:12:30;;;;;;;73.38;51.97;;;18.80;80.80;;;;;;4957648;28;90724;-53
2022/10/31 00:14:56;;;;;;;73.20;52.10;;;18.80;80.70;;;;;;4952396;28;90103;-51
2022/10/31 00:17:21;;;;;;;72.32;51.78;;;18.80;80.80;;;;;;4945984;28;90326;-50
2022/10/31 00:19:47;;;;;;;73.38;52.28;;;18.70;80.80;;;;;;4953191;28;90049;-51
2022/10/31 00:22:13;;;;;;;71.72;51.55;;;18.70;80.80;;;;;;4955050;28;94905;-52
2022/10/31 00:24:38;;;;;;;71.82;51.85;;;18.70;80.60;;;;;;4957142;28;89995;-53
2022/10/31 00:27:04;;;;;;;72.30;51.63;;;18.70;80.80;;;;;;4956812;28;94088;-50
2022/10/31 00:29:29;;;;;;;72.25;51.55;;;18.70;80.70;;;;;;4963217;28;90971;-51
2022/10/31 00:31:55;;;;;;;73.65;51.97;;;18.70;80.70;;;;;;4955191;28;91790;-50
2022/10/31 00:34:21;;;;;;;72.97;52.20;;;18.70;80.70;;;;;;4948291;28;89600;-51
2022/10/31 00:36:46;;;;;;;72.03;51.60;;;18.70;80.80;;;;;;4947203;28;91359;-52
2022/10/31 00:39:12;;;;;;;74.00;52.30;;;18.60;80.60;;;;;;4950808;28;89814;-54
2022/10/31 00:41:37;;;;;;;71.75;51.65;;;18.70;80.60;;;;;;4947287;28;90184;-49
2022/10/31 00:44:03;;;;;;;72.80;51.67;;;18.60;80.60;;;;;;4947840;28;90975;-51
2022/10/31 00:46:29;;;;;;;71.97;51.83;;;18.60;80.60;;;;;;4944889;28;91358;-53
2022/10/31 00:48:54;;;;;;;72.32;51.95;;;18.60;80.60;;;;;;4962589;28;89880;-52
2022/10/31 00:51:20;;;;;;;71.88;51.70;;;18.60;80.50;;;;;;4952001;28;93329;-52
2022/10/31 00:53:46;;;;;;;72.20;51.58;;;18.60;80.50;;;;;;4952650;28;92219;-50
2022/10/31 00:56:11;;;;;;;71.45;51.80;;;18.60;80.40;;;;;;4950681;28;90806;-51
2022/10/31 00:58:37;;;;;;;72.03;51.67;;;18.60;80.50;;;;;;4959082;28;90826;-52
2022/10/31 01:01:03;;;;;;;73.47;51.75;;;18.60;80.50;;;;;;4942003;28;91316;-50
2022/10/31 01:03:31;;;;;;;72.80;52.05;;;18.60;80.50;;;;;;4942663;28;92910;-49
2022/10/31 01:06:01;;;;;;;72.20;51.55;;;18.60;80.50;;;;;;4952409;28;90180;-51
2022/10/31 01:08:27;;;;;;;72.15;51.50;;;18.60;80.40;;;;;;4955067;28;90170;-50
2022/10/31 01:11:31;;;;;;;72.05;51.72;;;18.60;80.40;;;;;;4957685;28;89954;-52
2022/10/31 01:13:57;;;;;;;71.50;51.67;;;18.60;80.60;;;;;;4890272;28;94697;-51
2022/10/31 01:16:26;;;;;;;72.95;51.65;;;18.60;80.40;;;;;;4889455;28;91496;-53
2022/10/31 01:18:52;;;;;;;71.75;52.03;;;18.50;80.50;;;;;;4915829;28;91144;-51
2022/10/31 01:21:20;;;;;;;72.28;52.28;;;18.50;80.40;;;;;;4953692;28;92771;-52
2022/10/31 01:23:46;;;;;;;71.90;51.47;;;18.50;80.40;;;;;;4945826;28;90753;-51
2022/10/31 01:26:16;;;;;;;71.30;51.33;;;18.50;80.40;;;;;;4956130;28;90318;-51
2022/10/31 01:29:03;;;;;;;72.60;51.97;;;18.50;80.30;;;;;;4954329;28;91604;-52
2022/10/31 01:31:30;;;;;;;72.18;52.17;;;18.50;80.40;;;;;;4945861;28;91479;-52
2022/10/31 01:33:56;;;;;;;72.60;52.15;;;18.50;80.40;;;;;;4949159;28;90200;-48
2022/10/31 01:36:32;;;;;;;71.93;51.92;;;18.50;80.30;;;;;;4951524;28;91318;-52
2022/10/31 01:39:03;;;;;;;72.13;51.88;;;18.50;80.30;;;;;;4949865;28;90600;-53
2022/10/31 01:41:34;;;;;;;71.88;52.05;;;18.50;80.30;;;;;;4945445;28;95955;-52
2022/10/31 01:44:02;;;;;;;70.80;51.35;;;18.50;80.30;;;;;;4950525;28;89667;-51
2022/10/31 01:46:36;;;;;;;72.68;51.88;;;18.40;80.20;;;;;;4952027;28;91673;-51
2022/10/31 01:49:08;;;;;;;70.97;51.45;;;18.40;80.20;;;;;;4952397;28;89950;-50
2022/10/31 01:51:38;;;;;;;71.38;51.50;;;18.40;80.20;;;;;;4949248;28;90606;-50
2022/10/31 01:54:11;;;;;;;71.43;51.35;;;18.40;80.20;;;;;;4947899;28;89823;-52
2022/10/31 01:56:40;;;;;;;71.53;51.72;;;18.40;80.20;;;;;;4951177;28;90758;-50
2022/10/31 01:59:09;;;;;;;72.10;51.85;;;18.40;80.30;;;;;;4942707;28;93247;-52
2022/10/31 02:01:36;;;;;;;71.32;51.42;;;18.40;80.20;;;;;;4951188;28;94793;-52
2022/10/31 02:04:02;;;;;;;72.65;51.75;;;18.40;80.20;;;;;;4951174;28;90303;-53
2022/10/31 02:06:46;;;;;;;71.40;51.65;;;18.40;80.10;;;;;;4949378;28;92057;-52
2022/10/31 02:09:13;;;;;;;74.38;51.92;;;18.40;80.20;;;;;;4943613;28;90981;-52
2022/10/31 02:11:40;;;;;;;72.05;52.28;;;18.30;80.00;;;;;;4950521;28;89944;-54
2022/10/31 02:14:06;;;;;;;71.22;51.38;;;18.40;80.10;;;;;;4947417;28;89847;-53
2022/10/31 02:16:32;;;;;;;71.93;51.55;;;18.30;80.00;;;;;;4947589;28;93263;-54
2022/10/31 02:18:57;;;;;;;72.68;52.30;;;18.30;80.10;;;;;;4945534;28;91910;-52
2022/10/31 02:21:32;;;;;;;72.07;51.58;;;18.30;80.10;;;;;;4943534;28;91295;-53
2022/10/31 02:24:21;;;;;;;71.15;51.20;;;18.30;80.10;;;;;;4952556;28;89719;-51
2022/10/31 02:27:01;;;;;;;71.82;51.33;;;18.30;80.10;;;;;;4946579;28;92136;-52
2022/10/31 02:29:46;;;;;;;71.27;51.67;;;18.30;80.10;;;;;;4939518;28;92043;-52
2022/10/31 02:32:20;;;;;;;70.97;51.17;;;18.30;80.00;;;;;;4948135;28;91967;-49
2022/10/31 02:35:21;;;;;;;71.60;51.53;;;18.30;80.10;;;;;;4950733;28;92168;-52
2022/10/31 02:37:57;;;;;;;70.75;51.53;;;18.30;80.10;;;;;;4946631;28;89979;-52
2022/10/31 02:40:27;;;;;;;70.50;51.08;;;18.30;80.00;;;;;;4949006;28;96362;-52
2022/10/31 02:43:01;;;;;;;71.53;51.50;;;18.30;80.10;;;;;;4947764;28;90121;-53
2022/10/31 02:45:29;;;;;;;72.35;51.28;;;18.30;80.10;;;;;;4945602;28;90232;-53
2022/10/31 02:47:59;;;;;;;71.13;51.42;;;18.20;80.00;;;;;;4945000;28;90644;-52
2022/10/31 02:50:34;;;;;;;70.75;51.47;;;18.20;80.00;;;;;;4951198;28;89508;-50
2022/10/31 02:53:01;;;;;;;71.22;51.22;;;18.30;80.10;;;;;;4946101;28;89996;-53
2022/10/31 02:55:26;;;;;;;71.18;51.50;;;18.20;79.90;;;;;;4941416;28;91289;-52
2022/10/31 02:57:59;;;;;;;72.82;51.50;;;18.20;80.00;;;;;;4942204;28;92284;-50
2022/10/31 03:00:25;;;;;;;71.40;51.35;;;18.20;79.90;;;;;;4947316;28;90504;-51
2022/10/31 03:03:19;;;;;;;70.78;51.03;;;18.20;80.00;;;;;;4947603;28;90499;-51
2022/10/31 03:06:07;;;;;;;71.57;50.90;;;18.20;80.00;;;;;;4954218;28;90127;-49
2022/10/31 03:09:01;;;;;;;71.20;51.05;;;18.20;79.90;;;;;;4943619;28;92326;-52
2022/10/31 03:11:36;;;;;;;71.70;51.78;;;18.20;79.90;;;;;;4949113;28;89927;-52
2022/10/31 03:14:11;;;;;;;71.05;51.53;;;18.20;80.00;;;;;;4945948;28;91638;-50
2022/10/31 03:16:47;;;;;;;70.93;51.85;;;18.20;79.90;;;;;;4940182;28;92344;-51
2022/10/31 03:19:27;;;;;;;71.90;51.90;;;18.20;80.00;;;;;;4942451;28;90997;-51
2022/10/31 03:22:01;;;;;;;71.30;51.78;;;18.20;79.90;;;;;;4945719;28;90412;-48
2022/10/31 03:24:31;;;;;;;72.15;51.63;;;18.20;79.80;;;;;;4941626;28;92696;-52
2022/10/31 03:26:59;;;;;;;71.47;51.65;;;18.10;79.80;;;;;;4946239;28;92153;-52
2022/10/31 03:29:29;;;;;;;71.97;51.55;;;18.10;79.80;;;;;;4942978;28;90986;-50
2022/10/31 03:32:00;;;;;;;71.80;51.33;;;18.20;79.90;;;;;;4943969;28;91107;-51
2022/10/31 03:34:29;;;;;;;70.65;51.40;;;18.20;79.90;;;;;;4950150;28;92311;-47
2022/10/31 03:36:57;;;;;;;70.80;51.70;;;18.10;79.70;;;;;;4946071;28;91334;-49
2022/10/31 03:39:24;;;;;;;70.65;51.28;;;18.10;79.70;;;;;;4956690;28;90474;-50
2022/10/31 03:41:59;;;;;;;71.53;51.58;;;18.10;79.70;;;;;;4948566;28;90779;-52
2022/10/31 03:44:27;;;;;;;71.50;51.17;;;18.10;79.80;;;;;;4948951;28;89998;-48
2022/10/31 03:46:53;;;;;;;70.88;51.10;;;18.10;79.80;;;;;;4946128;28;90392;-52
2022/10/31 03:49:19;;;;;;;72.22;51.45;;;18.10;79.70;;;;;;4950031;28;91154;-52
2022/10/31 03:51:48;;;;;;;71.68;51.78;;;18.10;79.70;;;;;;4953782;28;91123;-53
2022/10/31 03:54:49;;;;;;;71.43;51.38;;;18.10;79.70;;;;;;4954224;28;90944;-53
2022/10/31 03:57:23;;;;;;;71.03;51.42;;;18.10;79.70;;;;;;4918400;28;90386;-52
2022/10/31 03:59:58;;;;;;;71.97;51.70;;;18.10;79.70;;;;;;4947284;28;90881;-52
2022/10/31 04:02:29;;;;;;;71.20;51.63;;;18.10;79.70;;;;;;4950139;28;90057;-52
2022/10/31 04:04:55;;;;;;;71.13;51.33;;;18.00;79.60;;;;;;4956497;28;90562;-53
2022/10/31 04:07:23;;;;;;;70.45;51.20;;;18.00;79.60;;;;;;4958833;28;95716;-54
2022/10/31 04:09:51;;;;;;;71.75;51.30;;;18.10;79.70;;;;;;4952921;28;91780;-51
2022/10/31 04:12:17;;;;;;;71.10;51.50;;;18.10;79.70;;;;;;4956642;28;90321;-49
2022/10/31 04:14:46;;;;;;;71.47;51.72;;;18.00;79.60;;;;;;4952993;28;91106;-53
2022/10/31 04:17:15;;;;;;;70.57;51.05;;;18.00;79.70;;;;;;4959149;28;89955;-50
2022/10/31 04:19:41;;;;;;;71.15;51.72;;;18.00;79.60;;;;;;4953222;28;90343;-53
2022/10/31 04:22:07;;;;;;;71.97;51.67;;;18.00;79.60;;;;;;4952474;28;91150;-52
2022/10/31 04:24:33;;;;;;;71.60;51.92;;;18.00;79.60;;;;;;4947205;28;91611;-53
2022/10/31 04:26:58;;;;;;;71.75;51.20;;;18.00;79.60;;;;;;4955070;28;90068;-50
2022/10/31 04:29:24;;;;;;;71.13;51.50;;;18.00;79.50;;;;;;4951363;28;92588;-52
2022/10/31 04:31:49;;;;;;;71.35;51.58;;;18.00;79.60;;;;;;4954352;28;89507;-51
2022/10/31 04:34:15;;;;;;;70.40;51.30;;;18.00;79.40;;;;;;4952606;28;92181;-54
2022/10/31 04:36:41;;;;;;;71.22;51.45;;;18.00;79.50;;;;;;4955024;28;89913;-51
2022/10/31 04:39:06;;;;;;;70.57;51.38;;;18.00;79.60;;;;;;4955733;28;90853;-48
2022/10/31 04:41:32;;;;;;;71.03;51.42;;;18.00;79.50;;;;;;4956378;28;90292;-53
2022/10/31 04:43:57;;;;;;;71.85;52.15;;;18.00;79.50;;;;;;4949311;28;90251;-54
2022/10/31 04:46:23;;;;;;;70.25;51.00;;;18.00;79.50;;;;;;4956069;28;89966;-54
2022/10/31 04:48:49;;;;;;;71.10;51.50;;;18.00;79.50;;;;;;4953548;28;90552;-53
2022/10/31 04:51:14;;;;;;;72.03;51.63;;;18.00;79.50;;;;;;4951993;28;91271;-52
2022/10/31 04:53:40;;;;;;;70.22;51.08;;;18.00;79.50;;;;;;4965297;28;89855;-53
2022/10/31 04:56:06;;;;;;;70.43;50.83;;;18.00;79.40;;;;;;4950126;28;90515;-53
2022/10/31 04:58:32;;;;;;;71.38;51.88;;;18.00;79.40;;;;;;4952000;28;90405;-53
2022/10/31 05:00:57;;;;;;;71.53;51.17;;;18.00;79.40;;;;;;4948375;28;90578;-53
2022/10/31 05:03:23;;;;;;;70.40;51.60;;;18.00;80.10;;;;;;4954386;28;90783;-53
2022/10/31 05:05:49;;;;;;;70.78;51.22;;;18.00;79.50;;;;;;4950983;28;90502;-52
2022/10/31 05:08:15;;;;;;;70.68;51.45;;;17.90;79.40;;;;;;4951320;28;91341;-52
2022/10/31 05:10:41;;;;;;;70.00;50.90;;;17.90;79.40;;;;;;4954081;28;91250;-53
2022/10/31 05:13:06;;;;;;;70.60;51.33;;;18.00;79.40;;;;;;4961017;28;93906;-48
2022/10/31 05:15:32;;;;;;;70.43;51.17;;;18.00;79.40;;;;;;4955507;28;90150;-53
2022/10/31 05:17:58;;;;;;;70.38;51.38;;;17.90;79.30;;;;;;4954083;28;91114;-53
2022/10/31 05:20:27;;;;;;;70.72;50.97;;;17.90;79.20;;;;;;4956109;28;89860;-52
2022/10/31 05:22:54;;;;;;;71.57;51.63;;;18.00;79.30;;;;;;4953853;28;90550;-53
2022/10/31 05:25:22;;;;;;;70.28;50.92;;;17.90;79.20;;;;;;4953900;28;89784;-53
2022/10/31 05:27:49;;;;;;;71.35;51.58;;;17.90;79.20;;;;;;4943620;28;91089;-52
2022/10/31 05:30:18;;;;;;;70.43;51.25;;;18.00;79.20;;;;;;4950734;28;92736;-53
2022/10/31 05:32:47;;;;;;;70.68;50.80;;;18.00;79.00;;;;;;4943674;28;93012;-53
2022/10/31 05:35:15;;;;;;;70.80;51.38;;;18.00;78.90;;;;;;4950510;28;92016;-51
2022/10/31 05:37:40;;;;;;;71.28;51.85;;;18.10;78.70;;;;;;4948257;28;92984;-53
2022/10/31 05:40:09;;;;;;;71.45;51.60;;;18.10;78.70;;;;;;4952704;28;90563;-49
2022/10/31 05:42:41;;;;;;;70.82;51.63;;;18.00;78.70;;;;;;4951704;28;91055;-54
2022/10/31 05:45:09;;;;;;;70.35;50.92;;;18.00;78.70;;;;;;4951116;28;89038;-54
2022/10/31 05:47:35;;;;;;;71.38;51.42;;;18.00;78.90;;;;;;4955759;28;90329;-49
2022/10/31 05:50:00;;;;;;;74.00;51.58;;;18.00;79.00;;;;;;4955007;28;90599;-49
2022/10/31 05:52:26;;;;;;;72.15;51.30;;;18.00;79.00;;;;;;4941284;28;90732;-49
2022/10/31 05:54:52;;;;;;;70.68;51.33;;;18.00;78.90;;;;;;4954712;28;90665;-49
2022/10/31 05:57:17;;;;;;;70.97;51.65;;;18.00;78.90;;;;;;4950439;28;90269;-52
2022/10/31 05:59:43;;;;;;;70.47;51.10;;;18.00;78.90;;;;;;4950210;28;90769;-50
2022/10/31 06:02:09;;;;;;;71.28;51.65;;;18.00;78.80;;;;;;4944052;28;94853;-49
2022/10/31 06:04:34;;;;;;;70.82;51.25;;;18.00;78.90;;;;;;4942428;28;90120;-53
2022/10/31 06:07:00;;;;;;;71.53;51.33;;;18.00;78.70;;;;;;4949225;28;94091;-53
2022/10/31 06:09:26;;;;;;;70.72;51.30;;;18.00;78.70;;;;;;4959541;28;89763;-50
2022/10/31 06:11:51;;;;;;;70.13;51.15;;;18.00;78.50;;;;;;4949744;28;92731;-50
2022/10/31 06:14:17;;;;;;;71.00;51.30;;;18.00;78.40;;;;;;4947051;28;91289;-50
2022/10/31 06:16:42;;;;;;;70.60;51.33;;;18.00;78.60;;;;;;4943793;28;92380;-52
2022/10/31 06:19:08;;;;;;;71.97;51.78;;;18.00;79.40;;;;;;4944687;28;91410;-52
2022/10/31 06:21:34;;;;;;;70.80;51.55;;;18.00;78.40;;;;;;4949040;28;91131;-53
2022/10/31 06:23:59;;;;;;;71.72;51.35;;;18.00;78.60;;;;;;4950983;28;89917;-51
2022/10/31 06:26:25;;;;;;;71.68;51.38;;;18.00;78.80;;;;;;4944858;28;90067;-53
2022/10/31 06:28:51;;;;;;;74.68;51.28;;;18.00;79.10;;;;;;4948125;28;91581;-52
2022/10/31 06:31:16;;;;;;;72.60;51.42;;;18.10;78.90;;;;;;4941574;28;90674;-51
2022/10/31 06:33:42;;;;;;;73.15;51.28;;;18.10;78.70;;;;;;4948420;28;91451;-50
2022/10/31 06:36:08;;;;;;;71.78;51.67;;;18.10;78.70;;;;;;4944393;28;91625;-53
2022/10/31 06:38:34;;;;;;;71.40;51.15;;;18.00;78.60;;;;;;4949982;28;90255;-52
2022/10/31 06:41:04;;;;;;;82.38;53.08;;;18.00;79.00;;;;;;4940728;28;95817;-54
2022/10/31 06:43:30;;;;;;;74.00;52.03;;;18.10;78.90;;;;;;4954932;28;90901;-50
2022/10/31 06:45:56;;;;;;;72.30;51.70;;;18.10;79.00;;;;;;4949538;28;90349;-53
2022/10/31 06:48:21;;;;;;;79.22;51.88;;;18.10;78.70;;;;;;4942639;28;92734;-51
2022/10/31 06:50:47;;;;;;;75.28;51.95;;;18.10;78.70;;;;;;4949336;28;91393;-52
2022/10/31 06:53:14;;;;;;;76.97;52.15;;;18.10;78.70;;;;;;4953325;28;89629;-52
2022/10/31 06:55:40;;;;;;;74.88;51.90;;;18.10;78.60;;;;;;4956347;28;90662;-51
2022/10/31 06:58:06;;;;;;;74.00;51.72;;;18.00;78.70;;;;;;4949359;28;89603;-52
2022/10/31 07:00:32;;;;;;;72.05;51.67;;;18.10;78.80;;;;;;4951082;28;89735;-51
2022/10/31 07:03:01;;;;;;;75.68;52.22;;;18.00;78.70;;;;;;4948086;28;92869;-52
2022/10/31 07:05:28;;;;;;;72.57;51.58;;;18.10;78.80;;;;;;4953258;28;95600;-51
2022/10/31 07:07:55;;;;;;;74.10;51.72;;;18.00;78.60;;;;;;4947972;28;90228;-51
2022/10/31 07:10:22;;;;;;;72.82;51.78;;;18.00;78.60;;;;;;4949171;28;90277;-52
2022/10/31 07:12:48;;;;;;;72.70;52.05;;;18.00;78.70;;;;;;4954686;28;90290;-52
2022/10/31 07:15:14;;;;;;;73.43;52.05;;;18.00;78.70;;;;;;4958784;28;90236;-48
2022/10/31 07:17:39;;;;;;;72.95;51.85;;;18.10;78.70;;;;;;4946269;28;90563;-50
2022/10/31 07:20:06;;;;;;;70.82;51.47;;;18.00;78.50;;;;;;4952107;28;90836;-48
2022/10/31 07:22:35;;;;;;;74.57;52.45;;;18.00;78.60;;;;;;4944953;28;89346;-51
2022/10/31 07:25:01;;;;;;;71.80;51.88;;;18.00;78.60;;;;;;4950455;28;90449;-48
2022/10/31 07:27:27;;;;;;;73.88;51.67;;;18.00;78.60;;;;;;4953848;28;94066;-49
2022/10/31 07:29:52;;;;;;;72.47;51.95;;;18.00;78.70;;;;;;4949400;28;91501;-52
2022/10/31 07:32:18;;;;;;;72.22;51.95;;;18.00;78.60;;;;;;4945718;28;91101;-52
2022/10/31 07:34:44;;;;;;;73.57;51.85;;;18.00;78.60;;;;;;4950398;28;91360;-51
2022/10/31 07:37:09;;;;;;;71.55;52.08;;;18.00;78.40;;;;;;4950412;28;90047;-48
2022/10/31 07:39:35;;;;;;;74.50;51.65;;;18.00;78.40;;;;;;4948243;28;92362;-51
2022/10/31 07:42:00;;;;;;;71.97;51.50;;;18.00;78.50;;;;;;4956392;28;90379;-51
2022/10/31 07:44:26;;;;;;;73.38;52.30;;;18.00;78.50;;;;;;4948101;28;90330;-49
2022/10/31 07:46:52;;;;;;;72.88;51.72;;;18.00;78.40;;;;;;4951311;28;89871;-50
2022/10/31 07:49:17;;;;;;;70.53;51.53;;;18.00;78.40;;;;;;4944512;28;89809;-48
2022/10/31 07:51:43;;;;;;;71.45;51.63;;;18.10;78.40;;;;;;4947057;28;91276;-52
2022/10/31 07:54:08;;;;;;;71.43;51.42;;;18.10;78.40;;;;;;4950694;28;91287;-50
2022/10/31 07:56:34;;;;;;;70.75;51.15;;;18.10;78.30;;;;;;4950877;28;91293;-53
2022/10/31 07:59:00;;;;;;;72.25;51.85;;;18.10;78.20;;;;;;4943679;28;90716;-51
2022/10/31 08:01:25;;;;;;;71.85;51.78;;;18.10;78.20;;;;;;4952445;28;90004;-50
2022/10/31 08:03:51;;;;;;;71.43;51.78;;;18.00;78.10;;;;;;4945107;28;90150;-49
2022/10/31 08:06:16;;;;;;;70.28;51.47;;;18.10;78.10;;;;;;4951913;28;93489;-51
2022/10/31 08:08:42;;;;;;;74.75;52.10;;;18.00;78.10;;;;;;4946631;28;91627;-50
2022/10/31 08:11:08;;;;;;;72.22;51.75;;;18.00;78.10;;;;;;4946040;28;89372;-48
2022/10/31 08:13:34;;;;;;;72.18;52.10;;;18.00;78.10;;;;;;4947632;28;90767;-50
2022/10/31 08:16:03;;;;;;;70.50;51.67;;;18.00;78.10;;;;;;4951520;28;93434;-52
2022/10/31 08:18:29;;;;;;;72.47;51.92;;;18.00;78.10;;;;;;4942443;28;95878;-52
2022/10/31 08:20:55;;;;;;;72.35;51.90;;;18.10;78.20;;;;;;4952970;28;90092;-48
2022/10/31 08:23:21;;;;;;;72.40;52.25;;;18.10;78.10;;;;;;4946337;28;91122;-47
2022/10/31 08:25:49;;;;;;;71.45;51.50;;;18.10;78.10;;;;;;4938461;28;93800;-51
2022/10/31 08:28:15;;;;;;;72.63;52.03;;;18.10;78.80;;;;;;4939671;28;89946;-52
2022/10/31 08:30:41;;;;;;;72.82;52.15;;;18.10;78.10;;;;;;4945495;28;89794;-51
2022/10/31 08:33:13;;;;;;;71.45;51.92;;;18.10;78.10;;;;;;4952418;28;89883;-51
2022/10/31 08:35:39;;;;;;;73.32;51.63;;;18.10;78.90;;;;;;4928891;28;96287;-52
2022/10/31 08:38:07;;;;;;;73.35;52.05;;;18.10;78.50;;;;;;4945525;28;90937;-52
2022/10/31 08:40:34;;;;;;;74.47;52.08;;;18.20;78.80;;;;;;4940814;28;91344;-49
2022/10/31 08:43:03;;;;;;;74.20;51.60;;;18.20;78.80;;;;;;4944940;28;92183;-49
2022/10/31 08:45:30;;;;;;;75.03;52.35;;;18.30;79.20;;;;;;4944958;28;92420;-45
2022/10/31 08:48:04;;;;;;;73.53;52.10;;;18.30;79.10;;;;;;4941540;28;90644;-46
2022/10/31 08:50:31;;;;;;;74.50;52.30;;;18.30;79.00;;;;;;4940669;28;90138;-49
2022/10/31 08:53:05;;;;;;;73.70;52.03;;;18.40;79.00;;;;;;4944924;28;90102;-51
2022/10/31 08:55:32;;;;;;;72.85;51.92;;;18.40;79.10;;;;;;4948224;28;89885;-50
2022/10/31 08:57:58;;;;;;;73.90;52.10;;;18.40;79.00;;;;;;4959167;28;89921;-51
2022/10/31 09:00:24;;;;;;;73.97;51.80;;;18.40;79.00;;;;;;4948350;28;91584;-45
2022/10/31 09:02:58;;;;;;;73.25;52.08;;;18.40;78.90;;;;;;4947054;28;90224;-52
2022/10/31 09:05:24;;;;;;;73.60;52.05;;;18.40;78.60;;;;;;4945427;28;91541;-45
2022/10/31 09:07:49;;;;;;;74.28;51.78;;;18.40;78.60;;;;;;4936912;28;91159;-52
2022/10/31 09:10:15;;;;;;;72.72;52.25;;;18.40;78.70;;;;;;4940554;28;91574;-51
2022/10/31 09:12:41;;;;;;;72.85;52.28;;;18.40;78.70;;;;;;4941313;28;95187;-49
2022/10/31 09:15:07;;;;;;;72.97;51.72;;;18.40;78.80;;;;;;4948499;28;91225;-46
2022/10/31 09:17:33;;;;;;;77.47;52.10;;;18.50;78.40;;;;;;4945147;28;89538;-52
2022/10/31 09:19:59;;;;;;;74.45;52.30;;;18.40;78.40;;;;;;4949040;28;90708;-49
2022/10/31 09:22:24;;;;;;;75.32;51.63;;;18.40;78.30;;;;;;4944578;28;89910;-52
2022/10/31 09:24:50;;;;;;;73.22;52.03;;;18.50;78.20;;;;;;4944219;28;94502;-47
2022/10/31 09:27:16;;;;;;;73.38;51.30;;;18.50;78.30;;;;;;4943707;28;96883;-46
2022/10/31 09:29:41;;;;;;;73.13;52.05;;;18.50;78.10;;;;;;4942036;28;89898;-49
2022/10/31 09:32:07;;;;;;;75.65;51.90;;;18.50;78.20;;;;;;4946465;28;92339;-47
2022/10/31 09:34:32;;;;;;;77.20;52.05;;;18.50;77.90;;;;;;4946101;28;91044;-47
2022/10/31 09:36:58;;;;;;;72.57;52.05;;;18.60;78.20;;;;;;4945183;28;93863;-47
2022/10/31 09:39:24;;;;;;;73.10;51.88;;;18.60;77.70;;;;;;4944423;28;90242;-48
2022/10/31 09:42:15;;;;;;;75.13;52.58;;;18.60;78.00;;;;;;4920179;28;91979;-49
2022/10/31 09:44:50;;;;;;;77.88;52.67;;;18.60;77.70;;;;;;4932669;28;92729;-51
2022/10/31 09:47:35;;;;;;;83.93;53.28;;;18.60;77.80;;;;;;4944443;28;90999;-52
2022/10/31 09:50:21;;;;;;;89.50;53.80;;;18.60;78.00;;;;;;4939418;28;93535;-49
2022/10/31 09:53:24;;;;;;;78.82;53.58;;;18.60;78.10;;;;;;4946770;28;90931;-49
2022/10/31 09:55:51;;;;;;;86.25;55.10;;;18.60;78.40;;;;;;4943707;28;90283;-50
2022/10/31 09:58:30;;;;;;;90.25;54.88;;;18.60;78.60;;;;;;4940652;28;91035;-49
2022/10/31 10:01:00;;;;;;;86.82;55.13;;;18.60;78.80;;;;;;4940033;28;89855;-49
2022/10/31 10:03:31;;;;;;;91.85;55.50;;;18.60;78.90;;;;;;4935201;28;90325;-52
2022/10/31 10:06:16;;;;;;;88.30;55.78;;;18.70;79.30;;;;;;4935477;28;90201;-49
2022/10/31 10:08:42;;;;;;;87.05;55.30;;;18.70;79.20;;;;;;4942933;28;90322;-48
2022/10/31 10:11:10;;;;;;;88.07;55.15;;;18.70;80.20;;;;;;4941918;28;90009;-49
2022/10/31 10:14:10;;;;;;;91.45;55.38;;;18.70;79.40;;;;;;4941856;28;95037;-48
2022/10/31 10:16:55;;;;;;;88.67;55.67;;;18.80;79.60;;;;;;4937382;28;90462;-52
2022/10/31 10:19:51;;;;;;;85.88;55.45;;;18.80;79.70;;;;;;4932932;28;91714;-44
2022/10/31 10:22:26;;;;;;;84.75;55.30;;;18.90;79.80;;;;;;4941875;28;89764;-46
2022/10/31 10:25:01;;;;;;;83.10;54.85;;;18.90;79.80;;;;;;4941129;28;91290;-47
2022/10/31 10:27:41;;;;;;;85.13;55.47;;;18.80;79.60;;;;;;4936729;28;90905;-51
2022/10/31 10:30:33;;;;;;;86.68;55.30;;;18.90;79.90;;;;;;4934906;28;89961;-50
2022/10/31 10:33:04;;;;;;;86.90;54.58;;;18.90;79.90;;;;;;4938049;28;96775;-49
2022/10/31 10:35:39;;;;;;;82.57;54.47;;;18.90;79.70;;;;;;4941998;28;90683;-45
2022/10/31 10:38:26;;;;;;;81.18;54.38;;;19.00;79.80;;;;;;4948003;28;91194;-49
2022/10/31 10:40:53;;;;;;;82.32;54.90;;;19.00;79.80;;;;;;4935933;28;91370;-47
2022/10/31 10:43:24;;;;;;;83.53;55.00;;;18.90;79.80;;;;;;4933052;28;91074;-49
2022/10/31 10:48:59;;;;;;;80.93;54.22;;;18.90;79.60;;;;;;4947455;28;91074;-48
2022/10/31 10:51:35;;;;;;;84.78;55.15;;;19.00;79.70;;;;;;4939640;28;92795;-44
2022/10/31 10:54:41;;;;;;;84.60;55.60;;;19.00;79.70;;;;;;4943674;28;90016;-51
2022/10/31 10:57:07;;;;;;;86.93;55.85;;;19.10;80.00;;;;;;4912868;28;90189;-50
2022/10/31 10:59:33;;;;;;;85.95;55.83;;;19.00;79.80;;;;;;4936910;28;90855;-50
2022/10/31 11:02:00;;;;;;;87.60;56.33;;;19.00;80.00;;;;;;4942803;28;91352;-49
2022/10/31 11:04:36;;;;;;;87.95;56.42;;;19.00;80.10;;;;;;4936398;28;94490;-55
2022/10/31 11:07:07;;;;;;;85.95;55.95;;;19.10;80.10;;;;;;4942527;28;90444;-52
2022/10/31 11:09:33;;;;;;;;;;;19.10;80.20;;;;;;4945273;28;89558;-51
2022/10/31 11:12:06;;;;;;;90.22;57.22;;;19.10;80.40;;;;;;4946031;28;94404;-52
2022/10/31 11:14:43;;;;;;;86.50;56.75;;;19.20;81.40;;;;;;4934458;28;90252;-53
2022/10/31 11:17:27;;;;;;;90.85;56.65;;;19.20;81.10;;;;;;4936664;28;93714;-54
2022/10/31 11:20:01;;;;;;;91.90;56.83;;;19.20;80.80;;;;;;4940584;28;96156;-53
2022/10/31 11:22:27;;;;;;;87.50;56.53;;;19.20;80.70;;;;;;4945083;28;89896;-54
2022/10/31 11:24:52;;;;;;;92.85;56.83;;;19.20;80.70;;;;;;4945067;28;90414;-55
2022/10/31 11:27:24;;;;;;;87.70;56.70;;;19.10;80.40;;;;;;4951944;28;90264;-49
2022/10/31 11:29:50;;;;;;;91.43;56.58;;;19.10;80.20;;;;;;4947882;28;90006;-51
2022/10/31 11:32:22;;;;;;;90.00;57.30;;;19.10;80.10;;;;;;4938652;28;89731;-50
2022/10/31 11:34:52;;;;;;;88.05;56.83;;;19.10;80.00;;;;;;4938949;28;89430;-51
2022/10/31 11:37:30;;;;;;;88.05;56.88;;;19.10;79.90;;;;;;4942608;28;90609;-54
2022/10/31 11:39:58;;;;;;;92.43;56.67;;;19.10;79.70;;;;;;4944527;28;91425;-52
2022/10/31 11:42:41;;;;;;;86.82;56.95;;;19.10;79.70;;;;;;4946481;28;90838;-53
2022/10/31 11:45:15;;;;;;;88.60;56.40;;;19.20;79.70;;;;;;4939135;28;90988;-52
2022/10/31 11:47:44;;;;;;;87.13;56.55;;;19.10;80.10;;;;;;4940617;28;92896;-53
2022/10/31 11:50:18;;;;;;;85.53;57.25;;;19.20;80.20;;;;;;4942903;28;90512;-52
2022/10/31 11:52:43;;;;;;;88.53;56.53;;;19.20;80.10;;;;;;4942076;28;89930;-53
2022/10/31 11:55:12;;;;;;;84.35;56.28;;;19.20;80.30;;;;;;4943483;28;90559;-49
2022/10/31 11:57:50;;;;;;;88.60;56.47;;;19.20;80.40;;;;;;4935232;28;92285;-55
2022/10/31 12:00:31;;;;;;;89.80;57.33;;;19.30;80.30;;;;;;4941213;28;90675;-50
2022/10/31 12:03:34;;;;;;;89.97;57.60;;;19.30;80.30;;;;;;4936747;28;93279;-47
2022/10/31 12:06:14;;;;;;;92.35;57.45;;;19.30;80.20;;;;;;4934402;28;91517;-51
2022/10/31 12:08:41;;;;;;;91.97;58.00;;;19.30;80.30;;;;;;4937068;28;91028;-53
2022/10/31 12:11:32;;;;;;;91.30;58.40;;;19.30;80.30;;;;;;4938040;28;92159;-52
2022/10/31 12:14:17;;;;;;;92.72;58.38;;;19.30;80.30;;;;;;4942054;28;92713;-50
2022/10/31 12:16:53;;;;;;;97.43;58.90;;;19.30;80.20;;;;;;4941966;28;90270;-51
2022/10/31 12:19:27;;;;;;;94.38;58.72;;;19.20;80.10;;;;;;4944287;28;91575;-50
2022/10/31 12:22:20;;;;;;;95.85;58.90;;;19.20;80.10;;;;;;4939328;28;90739;-52
2022/10/31 12:25:10;;;;;;;92.97;57.95;;;19.20;80.00;;;;;;4949178;28;89846;-52
2022/10/31 12:27:53;;;;;;;90.43;57.97;;;19.30;80.00;;;;;;4946111;28;89300;-48
2022/10/31 12:30:27;;;;;;;92.60;58.33;;;19.30;79.90;;;;;;4943704;28;90559;-49
2022/10/31 12:33:07;;;;;;;91.20;57.08;;;19.30;79.90;;;;;;4935469;28;90897;-52
2022/10/31 12:35:41;;;;;;;90.35;57.80;;;19.30;79.80;;;;;;4942801;28;90863;-52
2022/10/31 12:38:34;;;;;;;91.70;58.05;;;19.30;79.70;;;;;;4938818;28;90114;-50
2022/10/31 12:41:18;;;;;;;92.97;58.15;;;19.30;79.70;;;;;;4946822;28;90116;-50
2022/10/31 12:43:51;;;;;;;91.47;57.88;;;19.30;79.70;;;;;;4943781;28;90599;-51
2022/10/31 12:46:55;;;;;;;91.05;58.03;;;19.30;79.60;;;;;;4935465;28;90681;-49